Time;durP1;ratioP1;P1;durP2;ratioP2;P2;SDS_P1;SDS_P2;PMS_P1;PMS_P2;Temp;Humidity;BMP_temperature;BMP_pressure;BME280_temperature;BME280_humidity;BME280_pressure;Samples;Min_cycle;Max_cycle;Signal;HPM_P1;HPM_P2
2022/07/14 00:02:05;;;;;;;;;9.67;9.00;;;;;25.39;44.19;101427.00;5049706;28;49164;-75
2022/07/14 00:04:30;;;;;;;;;8.00;8.00;;;;;25.34;43.88;101419.63;5043513;28;45560;-74
2022/07/14 00:06:55;;;;;;;;;11.00;11.00;;;;;25.35;44.15;101421.28;5061865;28;45696;-75
2022/07/14 00:09:21;;;;;;;;;6.33;6.33;;;;;25.31;43.77;101422.84;5061593;28;47367;-74
2022/07/14 00:11:46;;;;;;;;;10.00;10.00;;;;;25.31;44.04;101417.41;5059102;28;48271;-74
2022/07/14 00:14:11;;;;;;;;;9.67;8.67;;;;;25.28;43.53;101424.19;5039808;28;45257;-74
2022/07/14 00:16:38;;;;;;;;;8.00;7.33;;;;;25.29;43.43;101420.38;5046210;28;45345;-74
2022/07/14 00:19:03;;;;;;;;;9.00;9.00;;;;;25.32;43.51;101411.72;5049193;28;46206;-74
2022/07/14 00:21:29;;;;;;;;;8.67;7.67;;;;;25.30;43.65;101402.19;5043298;28;48050;-72
2022/07/14 00:23:54;;;;;;;;;8.00;7.67;;;;;25.32;43.56;101409.00;5061418;28;45535;-72
2022/07/14 00:26:19;;;;;;;;;6.00;4.67;;;;;25.32;43.65;101410.91;5053184;28;45296;-72
2022/07/14 00:28:45;;;;;;;;;8.33;8.33;;;;;25.30;43.67;101402.19;5061142;28;45342;-72
2022/07/14 00:31:11;;;;;;;;;7.00;7.00;;;;;25.32;43.84;101410.91;5060975;28;45494;-72
2022/07/14 00:33:38;;;;;;;;;9.00;9.00;;;;;25.32;43.84;101408.19;5056876;28;46221;-72
2022/07/14 00:36:05;;;;;;;;;10.33;10.33;;;;;25.36;43.64;101405.75;5049143;28;45329;-72
2022/07/14 00:38:31;;;;;;;;;11.33;9.67;;;;;25.35;44.08;101402.25;5042695;28;47019;-72
2022/07/14 00:40:56;;;;;;;;;8.00;8.00;;;;;25.35;44.27;101394.09;5060693;28;46255;-72
2022/07/14 00:43:22;;;;;;;;;7.67;7.67;;;;;25.36;44.78;101389.44;5061237;28;45304;-72
2022/07/14 00:45:48;;;;;;;;;9.33;8.33;;;;;25.35;44.81;101385.91;5060790;28;45671;-72
2022/07/14 00:48:14;;;;;;;;;10.67;10.67;;;;;25.32;45.15;101372.84;5046964;28;47018;-72
2022/07/14 00:50:44;;;;;;;;;9.67;8.00;;;;;25.29;44.66;101360.56;5060726;28;46405;-72
2022/07/14 00:53:11;;;;;;;;;7.33;6.67;;;;;25.32;44.85;101365.47;5045514;28;45268;-72
2022/07/14 00:55:39;;;;;;;;;5.00;5.00;;;;;25.31;44.71;101363.84;5060831;28;45315;-72
2022/07/14 00:58:04;;;;;;;;;8.33;7.67;;;;;25.33;44.54;101358.16;5057748;28;46720;-72
2022/07/14 01:00:30;;;;;;;;;8.67;8.67;;;;;25.39;44.38;101365.28;5060477;28;45382;-75
2022/07/14 01:02:56;;;;;;;;;7.67;7.67;;;;;25.38;44.08;101360.91;5042649;28;45333;-75
2022/07/14 01:05:21;;;;;;;;;7.67;7.33;;;;;25.42;44.07;101362.03;5047957;28;45302;-75
2022/07/14 01:07:47;;;;;;;;;7.00;7.00;;;;;25.40;43.90;101356.03;5060681;28;45391;-74
2022/07/14 01:10:13;;;;;;;;;12.00;11.00;;;;;25.42;44.20;101364.75;5059073;28;45344;-74
2022/07/14 01:12:44;;;;;;;;;10.00;10.00;;;;;25.45;45.14;101355.25;5060680;28;45406;-75
2022/07/14 01:15:10;;;;;;;;;10.33;10.33;;;;;25.46;45.42;101367.75;5058297;28;45352;-74
2022/07/14 01:17:36;;;;;;;;;14.00;12.67;;;;;25.49;45.16;101366.44;5065843;28;45482;-75
2022/07/14 01:20:02;;;;;;;;;14.00;12.00;;;;;25.43;45.42;101354.69;5060254;28;45353;-75
2022/07/14 01:22:28;;;;;;;;;12.33;11.67;;;;;25.44;45.58;101365.31;5060605;28;45279;-75
2022/07/14 01:24:53;;;;;;;;;10.33;10.33;;;;;25.43;45.94;101368.28;5060347;28;45280;-75
2022/07/14 01:27:18;;;;;;;;;12.00;12.00;;;;;25.45;45.98;101375.13;5060450;28;45482;-74
2022/07/14 01:29:43;;;;;;;;;11.33;10.33;;;;;25.43;46.27;101373.72;5059920;28;46694;-75
2022/07/14 01:32:09;;;;;;;;;14.00;14.00;;;;;25.40;46.29;101375.06;5060254;28;45550;-74
2022/07/14 01:34:35;;;;;;;;;14.67;14.00;;;;;25.40;46.62;101385.94;5050140;28;45482;-74
2022/07/14 01:37:00;;;;;;;;;13.00;13.00;;;;;25.42;46.73;101393.84;5041841;28;52975;-74
2022/07/14 01:39:25;;;;;;;;;18.00;15.33;;;;;25.41;47.16;101392.22;5059795;28;45345;-75
2022/07/14 01:41:51;;;;;;;;;16.33;16.00;;;;;25.40;47.15;101396.84;5060192;28;45442;-75
2022/07/14 01:44:17;;;;;;;;;14.33;13.33;;;;;25.40;47.10;101399.56;5042039;28;45660;-75
2022/07/14 01:46:42;;;;;;;;;13.00;13.00;;;;;25.34;47.35;101395.97;5047452;28;47401;-75
2022/07/14 01:49:08;;;;;;;;;13.33;13.00;;;;;25.29;47.55;101401.34;5059772;28;45439;-75
2022/07/14 01:51:34;;;;;;;;;12.67;12.67;;;;;25.29;47.61;101406.00;5059988;28;45375;-74
2022/07/14 01:54:00;;;;;;;;;12.33;12.33;;;;;25.21;47.96;101390.97;5041772;28;45446;-74
2022/07/14 01:56:25;;;;;;;;;17.33;17.33;;;;;25.17;48.28;101389.84;5059673;28;45374;-74
2022/07/14 01:58:50;;;;;;;;;17.00;15.33;;;;;25.09;48.41;101385.69;5059759;28;45405;-74
2022/07/14 02:04:01;;;;;;;;;16.67;16.00;;;;;25.02;48.40;101391.31;5059980;28;45489;-74
2022/07/14 02:06:26;;;;;;;;;16.67;16.67;;;;;24.95;48.39;101387.97;5059567;28;45417;-74
2022/07/14 02:08:52;;;;;;;;;14.00;14.00;;;;;24.90;48.52;101383.31;5059684;28;45465;-74
2022/07/14 02:14:03;;;;;;;;;15.00;15.00;;;;;24.82;48.08;101379.16;5059789;28;45369;-75
2022/07/14 02:16:29;;;;;;;;;14.33;12.67;;;;;24.75;48.27;101370.34;5064728;28;45466;-74
2022/07/14 02:18:55;;;;;;;;;12.67;12.67;;;;;24.78;48.59;101377.19;5059643;28;46171;-74
2022/07/14 02:21:20;;;;;;;;;15.00;14.67;;;;;24.69;48.55;101372.19;5059336;28;45253;-74
2022/07/14 02:23:45;;;;;;;;;14.67;13.00;;;;;24.71;48.43;101380.09;5044852;28;45489;-74
2022/07/14 02:26:14;;;;;;;;;12.67;12.33;;;;;24.72;48.22;101376.28;5059567;28;45332;-75
2022/07/14 02:28:41;;;;;;;;;13.67;12.67;;;;;24.72;48.42;101381.72;5059170;28;46701;-74
2022/07/14 02:31:09;;;;;;;;;13.00;13.00;;;;;24.69;47.97;101372.19;5059323;28;45350;-75
2022/07/14 02:33:34;;;;;;;;;12.67;10.67;;;;;24.69;48.67;101374.09;5059290;28;45474;-74
2022/07/14 02:36:00;;;;;;;;;12.67;12.67;;;;;24.69;49.28;101379.53;5059133;28;45488;-74
2022/07/14 02:38:25;;;;;;;;;14.67;14.00;;;;;24.64;48.11;101368.59;5041005;28;48405;-75
2022/07/14 02:40:50;;;;;;;;;14.33;13.00;;;;;24.63;48.35;101372.41;5059210;28;45268;-75
2022/07/14 02:43:16;;;;;;;;;11.00;11.00;;;;;24.64;47.55;101358.56;5059419;28;45348;-74
2022/07/14 02:45:42;;;;;;;;;11.00;11.00;;;;;24.68;48.01;101361.56;5058832;28;45312;-74
2022/07/14 02:48:07;;;;;;;;;14.33;13.00;;;;;24.67;48.11;101365.38;5059116;28;45471;-74
2022/07/14 02:50:33;;;;;;;;;14.67;14.67;;;;;24.67;48.60;101368.94;5059285;28;45411;-74
2022/07/14 02:52:58;;;;;;;;;13.00;12.33;;;;;24.66;47.82;101369.97;5058977;28;45337;-74
2022/07/14 02:55:24;;;;;;;;;11.00;11.00;;;;;24.60;47.68;101368.28;5059247;28;45359;-74
2022/07/14 02:57:49;;;;;;;;;12.67;12.67;;;;;24.57;47.91;101361.47;5058611;28;46468;-74
2022/07/14 03:00:14;;;;;;;;;12.67;12.67;;;;;24.56;48.14;101365.25;5059042;28;45374;-75
2022/07/14 03:02:40;;;;;;;;;11.67;11.67;;;;;24.52;48.47;101368.75;5051918;28;45360;-74
2022/07/14 03:05:06;;;;;;;;;11.00;11.00;;;;;24.44;48.32;101368.13;5043799;28;46084;-74
2022/07/14 03:07:32;;;;;;;;;9.33;9.33;;;;;24.36;48.43;101359.59;5040660;28;47092;-75
2022/07/14 03:09:57;;;;;;;;;9.00;9.00;;;;;24.29;48.47;101355.16;5058623;28;45276;-74
2022/07/14 03:12:22;;;;;;;;;10.00;10.00;;;;;24.21;49.22;101355.59;5058927;28;45327;-74
2022/07/14 03:14:48;;;;;;;;;10.33;9.67;;;;;24.19;49.52;101353.13;5040488;28;46087;-75
2022/07/14 03:17:14;;;;;;;;;10.33;10.33;;;;;24.14;49.71;101350.34;5064135;28;45607;-75
2022/07/14 03:19:40;;;;;;;;;12.33;10.00;;;;;24.13;49.41;101361.44;5058747;28;45235;-74
2022/07/14 03:22:06;;;;;;;;;11.00;11.00;;;;;24.13;49.18;101358.72;5058958;28;45274;-74
2022/07/14 03:24:31;;;;;;;;;11.33;11.33;;;;;24.06;49.10;101354.28;5058674;28;45389;-75
2022/07/14 03:26:56;;;;;;;;;9.33;9.00;;;;;24.04;49.96;101359.16;5058435;28;45435;-74
2022/07/14 03:29:22;;;;;;;;;10.67;10.67;;;;;24.01;49.69;101351.53;5058503;28;45384;-74
2022/07/14 03:31:48;;;;;;;;;11.00;11.00;;;;;23.98;50.04;101354.72;5058574;28;45439;-74
2022/07/14 03:34:14;;;;;;;;;10.67;10.00;;;;;23.95;49.85;101366.88;5062181;28;45357;-74
2022/07/14 03:36:39;;;;;;;;;12.00;12.00;;;;;23.92;49.87;101364.69;5061756;28;45399;-74
2022/07/14 03:39:05;;;;;;;;;11.00;11.00;;;;;23.93;49.63;101362.78;5062044;28;45308;-74
2022/07/14 03:41:31;;;;;;;;;11.00;9.33;;;;;23.93;50.46;101360.06;5062375;28;45438;-74
2022/07/14 03:43:56;;;;;;;;;10.67;10.67;;;;;23.91;50.06;101356.81;5061681;28;45410;-74
2022/07/14 03:46:22;;;;;;;;;11.33;11.33;;;;;23.92;50.48;101362.00;5046611;28;48159;-74
2022/07/14 03:48:47;;;;;;;;;12.33;12.33;;;;;23.90;50.40;101358.69;5061939;28;45276;-74
2022/07/14 03:51:12;;;;;;;;;10.67;10.67;;;;;23.87;51.06;101351.03;5043768;28;45584;-74
2022/07/14 03:53:38;;;;;;;;;14.67;14.67;;;;;23.85;50.88;101358.59;5061609;28;45381;-74
2022/07/14 03:56:04;;;;;;;;;9.00;9.00;;;;;23.90;50.45;101360.56;5061561;28;45330;-74
2022/07/14 03:58:29;;;;;;;;;10.00;10.00;;;;;23.93;51.01;101360.06;5061990;28;45398;-74
2022/07/14 04:00:55;;;;;;;;;9.00;9.00;;;;;23.90;51.50;101349.72;5061687;28;45281;-74
2022/07/14 04:03:20;;;;;;;;;12.33;11.00;;;;;23.89;51.10;101359.78;5061804;28;45303;-74
2022/07/14 04:05:46;;;;;;;;;10.33;10.33;;;;;23.89;50.82;101350.78;5061743;28;45608;-74
2022/07/14 04:08:11;;;;;;;;;12.67;11.67;;;;;23.88;51.07;101349.16;5061277;28;45426;-74
2022/07/14 04:10:37;;;;;;;;;10.00;9.67;;;;;23.82;51.66;101354.50;5049690;28;45325;-74
2022/07/14 04:13:02;;;;;;;;;10.67;10.67;;;;;23.82;51.52;101353.66;5043205;28;47405;-74
2022/07/14 04:15:29;;;;;;;;;13.33;12.00;;;;;23.85;51.52;101361.31;5061601;28;45504;-74
2022/07/14 04:17:55;;;;;;;;;10.00;10.00;;;;;23.82;51.82;101354.50;5066761;28;45371;-74
2022/07/14 04:20:21;;;;;;;;;11.00;11.00;;;;;23.80;51.66;101350.41;5061405;28;45276;-74
2022/07/14 04:22:48;;;;;;;;;11.67;11.67;;;;;23.77;51.49;101351.72;5061210;28;45469;-74
2022/07/14 04:25:14;;;;;;;;;14.33;13.00;;;;;23.75;51.73;101355.75;5061228;28;45642;-74
2022/07/14 04:27:40;;;;;;;;;12.00;10.00;;;;;23.71;51.79;101353.53;5061331;28;45375;-74
2022/07/14 04:30:07;;;;;;;;;10.33;10.33;;;;;23.69;51.87;101352.13;5055744;28;45407;-74
2022/07/14 04:32:33;;;;;;;;;13.33;12.33;;;;;23.67;51.64;101359.69;5061132;28;46351;-75
2022/07/14 04:34:58;;;;;;;;;13.00;12.00;;;;;23.65;51.77;101364.56;5042659;28;46873;-74
2022/07/14 04:37:23;;;;;;;;;12.00;12.00;;;;;23.62;51.58;101359.63;5061341;28;45288;-74
2022/07/14 04:39:49;;;;;;;;;10.33;10.33;;;;;23.58;52.33;101362.84;5039765;28;45316;-74
2022/07/14 04:42:14;;;;;;;;;10.67;10.00;;;;;23.57;52.40;101366.63;5054959;28;45909;-74
2022/07/14 04:44:41;;;;;;;;;13.00;12.00;;;;;23.53;52.48;101362.78;5042599;28;48528;-74
2022/07/14 04:47:07;;;;;;;;;12.67;12.67;;;;;23.51;53.09;101364.06;5061128;28;45359;-74
2022/07/14 04:52:16;;;;;;;;;10.67;9.00;;;;;23.42;53.31;101369.91;5060992;28;45379;-74
2022/07/14 04:54:42;;;;;;;;;10.00;10.00;;;;;23.34;53.49;101359.41;5060370;28;46197;-74
2022/07/14 04:57:08;;;;;;;;;10.67;10.67;;;;;23.35;53.66;101363.78;5042773;28;45364;-74
2022/07/14 04:59:33;;;;;;;;;11.00;11.00;;;;;23.31;54.21;101359.91;5060566;28;45534;-74
2022/07/14 05:02:00;;;;;;;;;11.00;11.00;;;;;23.31;53.95;101377.00;5060907;28;45560;-74
2022/07/14 05:04:26;;;;;;;;;12.00;12.00;;;;;23.29;54.63;101381.03;5060524;28;46310;-74
2022/07/14 05:06:52;;;;;;;;;13.33;11.67;;;;;23.30;54.79;101386.22;5060623;28;45323;-75
2022/07/14 05:09:18;;;;;;;;;12.00;11.00;;;;;23.33;53.79;101380.31;5060701;28;45346;-74
2022/07/14 05:11:44;;;;;;;;;11.67;11.67;;;;;23.39;53.92;101392.09;5060045;28;45343;-75
2022/07/14 05:14:10;;;;;;;;;15.00;13.00;;;;;23.39;54.45;101378.53;5042155;28;45879;-74
2022/07/14 05:16:35;;;;;;;;;12.00;11.67;;;;;23.46;53.57;101381.06;5056166;28;45883;-75
2022/07/14 05:19:00;;;;;;;;;13.67;11.33;;;;;23.49;53.79;101374.34;5060853;28;45309;-74
2022/07/14 05:21:26;;;;;;;;;13.00;13.00;;;;;23.53;53.82;101372.78;5053893;28;47053;-74
2022/07/14 05:23:52;;;;;;;;;12.33;12.00;;;;;23.60;53.32;101368.00;5060412;28;45410;-74
2022/07/14 05:26:18;;;;;;;;;11.67;11.67;;;;;23.67;53.07;101378.69;5060323;28;45574;-74
2022/07/14 05:28:43;;;;;;;;;11.00;11.00;;;;;23.71;53.72;101369.00;5060225;28;45340;-74
2022/07/14 05:31:09;;;;;;;;;15.67;15.67;;;;;23.78;53.29;101377.78;5059940;28;45329;-74
2022/07/14 05:33:35;;;;;;;;;15.67;14.67;;;;;23.76;52.85;101368.25;5059954;28;46442;-74
2022/07/14 05:36:01;;;;;;;;;12.67;12.00;;;;;23.86;53.25;101375.72;5060269;28;45388;-74
2022/07/14 05:38:27;;;;;;;;;18.67;17.33;;;;;23.89;52.72;101372.50;5041989;28;45356;-74
2022/07/14 05:40:53;;;;;;;;;12.33;12.33;;;;;23.94;53.22;101369.84;5059963;28;45440;-74
2022/07/14 05:43:19;;;;;;;;;14.00;14.00;;;;;23.93;52.93;101360.06;5059962;28;45596;-74
2022/07/14 05:45:46;;;;;;;;;13.00;12.00;;;;;24.00;53.18;101371.56;5039238;28;45739;-74
2022/07/14 05:48:11;;;;;;;;;11.67;11.67;;;;;24.04;52.65;101372.75;5060087;28;45352;-74
2022/07/14 05:50:36;;;;;;;;;18.33;15.00;;;;;24.05;52.95;101363.50;5059885;28;45209;-74
2022/07/14 05:53:02;;;;;;;;;15.00;14.00;;;;;24.08;53.25;101365.72;5059548;28;46224;-72
2022/07/14 05:55:27;;;;;;;;;15.00;14.67;;;;;24.11;53.07;101361.69;5059455;28;45255;-72
2022/07/14 05:57:53;;;;;;;;;14.00;14.00;;;;;24.13;52.72;101364.16;5059808;28;45220;-72
2022/07/14 06:00:18;;;;;;;;;14.00;14.00;;;;;24.08;53.33;101368.44;5059759;28;45424;-72
2022/07/14 06:02:44;;;;;;;;;15.33;14.33;;;;;24.04;53.33;101361.03;5059466;28;45391;-72
2022/07/14 06:05:10;;;;;;;;;15.00;15.00;;;;;24.06;52.67;101370.56;5059949;28;45648;-72
2022/07/14 06:07:36;;;;;;;;;15.00;13.00;;;;;24.08;53.13;101379.31;5059835;28;45265;-72
2022/07/14 06:10:02;;;;;;;;;16.00;16.00;;;;;24.08;52.81;101383.91;5056595;28;46387;-74
2022/07/14 06:12:28;;;;;;;;;16.33;16.33;;;;;24.09;53.27;101383.66;5041464;28;47525;-74
2022/07/14 06:14:54;;;;;;;;;15.67;15.33;;;;;24.10;53.25;101373.63;5059215;28;45378;-74
2022/07/14 06:17:19;;;;;;;;;16.67;16.00;;;;;24.19;52.92;101388.41;5052649;28;45736;-74
2022/07/14 06:19:44;;;;;;;;;16.67;15.33;;;;;24.24;53.35;101387.66;5059437;28;45316;-74
2022/07/14 06:22:10;;;;;;;;;16.33;15.67;;;;;24.25;53.23;101386.63;5044967;28;48047;-74
2022/07/14 06:24:41;;;;;;;;;14.00;14.00;;;;;24.34;53.14;101395.16;5059417;28;45479;-74
2022/07/14 06:27:06;;;;;;;;;16.33;14.67;;;;;24.41;53.25;101397.66;5059764;28;45477;-74
2022/07/14 06:29:32;;;;;;;;;14.33;14.33;;;;;24.44;53.66;101389.84;5049176;28;46208;-74
2022/07/14 06:31:57;;;;;;;;;15.00;14.67;;;;;24.52;53.53;101396.72;5059273;28;45480;-74
2022/07/14 06:34:23;;;;;;;;;14.00;14.00;;;;;24.62;53.66;101390.59;5059499;28;45391;-74
2022/07/14 06:36:49;;;;;;;;;14.67;14.00;;;;;24.72;53.15;101387.16;5053357;28;45397;-74
2022/07/14 06:39:14;;;;;;;;;13.00;13.00;;;;;24.83;53.29;101388.09;5058880;28;45415;-74
2022/07/14 06:41:40;;;;;;;;;15.00;15.00;;;;;24.91;52.36;101387.69;5059294;28;45408;-75
2022/07/14 06:44:05;;;;;;;;;16.00;15.00;;;;;24.99;52.46;101385.59;5058958;28;45313;-74
2022/07/14 06:46:32;;;;;;;;;13.33;13.00;;;;;25.05;52.45;101390.00;5059656;28;45270;-74
2022/07/14 06:48:58;;;;;;;;;13.00;11.00;;;;;25.12;52.64;101395.22;5050984;28;47076;-75
2022/07/14 06:51:24;;;;;;;;;15.33;15.33;;;;;25.18;52.72;101399.63;5058765;28;45546;-74
2022/07/14 06:53:49;;;;;;;;;14.00;14.00;;;;;25.22;51.99;101403.47;5058820;28;45415;-74
2022/07/14 06:56:15;;;;;;;;;16.33;14.00;;;;;25.25;51.92;101408.41;5059059;28;45231;-74
2022/07/14 06:58:40;;;;;;;;;15.67;15.67;;;;;25.22;51.48;101408.91;5059052;28;45276;-74
2022/07/14 07:01:06;;;;;;;;;18.00;16.33;;;;;25.11;51.97;101393.59;5058812;28;45935;-74
2022/07/14 07:03:31;;;;;;;;;13.00;13.00;;;;;25.08;51.88;101400.38;5059389;28;45779;-74
2022/07/14 07:08:40;;;;;;;;;19.00;18.33;;;;;25.05;52.31;101385.38;5061716;28;45338;-75
2022/07/14 07:11:06;;;;;;;;;15.67;14.00;;;;;25.06;52.84;101397.91;5062120;28;45532;-75
2022/07/14 07:13:31;;;;;;;;;14.67;14.67;;;;;25.11;52.02;101385.44;5062753;28;45638;-75
2022/07/14 07:15:56;;;;;;;;;13.67;13.67;;;;;25.20;51.70;101392.03;5046806;28;45407;-75
2022/07/14 07:18:22;;;;;;;;;16.33;16.33;;;;;25.21;51.43;101391.78;5046890;28;45897;-74
2022/07/14 07:20:47;;;;;;;;;17.33;17.33;;;;;25.28;51.09;101396.16;5062675;28;45371;-75
2022/07/14 07:23:12;;;;;;;;;16.67;16.00;;;;;25.27;51.40;101384.50;5048217;28;45363;-75
2022/07/14 07:25:38;;;;;;;;;15.33;15.33;;;;;25.32;51.49;101386.44;5063873;28;45375;-75
2022/07/14 07:28:04;;;;;;;;;16.00;15.00;;;;;25.40;51.78;101393.28;5062672;28;45410;-75
2022/07/14 07:30:29;;;;;;;;;20.00;20.00;;;;;25.43;51.28;101392.75;5062938;28;46380;-75
2022/07/14 07:32:55;;;;;;;;;16.33;14.67;;;;;25.49;51.43;101405.34;5053225;28;45773;-76
2022/07/14 07:35:21;;;;;;;;;17.33;16.67;;;;;25.43;51.25;101399.03;5063101;28;45336;-76
2022/07/14 07:37:47;;;;;;;;;16.33;15.00;;;;;25.52;51.50;101391.22;5048217;28;45989;-75
2022/07/14 07:40:13;;;;;;;;;12.33;12.33;;;;;25.51;51.47;101383.31;5062934;28;45445;-76
2022/07/14 07:42:38;;;;;;;;;17.00;15.67;;;;;25.56;51.79;101392.31;5062340;28;45231;-75
2022/07/14 07:45:04;;;;;;;;;18.00;15.33;;;;;25.68;51.65;101399.53;5043763;28;45265;-75
2022/07/14 07:47:30;;;;;;;;;15.67;15.00;;;;;25.79;51.29;101398.50;5062285;28;45505;-76
2022/07/14 07:49:55;;;;;;;;;16.00;15.33;;;;;25.92;50.84;101404.59;5048186;28;47444;-76
2022/07/14 07:52:21;;;;;;;;;14.33;14.00;;;;;25.98;50.71;101389.94;5044160;28;45883;-75
2022/07/14 07:54:47;;;;;;;;;14.67;14.00;;;;;26.07;50.16;101384.81;5062194;28;45407;-75
2022/07/14 07:57:13;;;;;;;;;13.33;13.33;;;;;26.14;50.53;101381.84;5061847;28;45415;-72
2022/07/14 07:59:39;;;;;;;;;14.00;14.00;;;;;26.26;49.87;101385.16;5061086;28;45489;-73
2022/07/14 08:02:05;;;;;;;;;15.33;14.00;;;;;26.31;49.44;101385.22;5061629;28;45377;-74
2022/07/14 08:04:32;;;;;;;;;13.67;13.67;;;;;26.39;49.36;101389.34;5061515;28;45517;-72
2022/07/14 08:06:57;;;;;;;;;13.67;12.00;;;;;26.44;48.90;101380.38;5061786;28;45495;-72
2022/07/14 08:09:22;;;;;;;;;15.67;13.67;;;;;26.54;49.51;101379.56;5061430;28;45995;-72
2022/07/14 08:11:48;;;;;;;;;11.00;11.00;;;;;26.59;48.73;101382.31;5059317;28;45493;-72
2022/07/14 08:16:58;;;;;;;;;12.00;11.67;;;;;26.76;48.44;101378.56;5066804;28;45435;-73
2022/07/14 08:19:23;;;;;;;;;15.67;15.00;;;;;26.82;48.52;101383.75;5060752;28;45349;-73
2022/07/14 08:21:49;;;;;;;;;15.00;15.00;;;;;26.89;47.62;101378.03;5061078;28;45288;-73
2022/07/14 08:24:15;;;;;;;;;17.00;15.33;;;;;26.90;47.61;101376.16;5061549;28;45294;-74
2022/07/14 08:26:40;;;;;;;;;15.00;13.33;;;;;26.95;48.02;101381.59;5061258;28;45473;-72
2022/07/14 08:29:07;;;;;;;;;14.00;13.67;;;;;27.02;47.72;101371.25;5047284;28;46036;-73
2022/07/14 08:31:32;;;;;;;;;16.00;16.00;;;;;27.09;47.39;101369.09;5061357;28;45395;-72
2022/07/14 08:33:57;;;;;;;;;16.00;16.00;;;;;27.16;47.61;101371.56;5060767;28;45270;-73
2022/07/14 08:36:23;;;;;;;;;14.00;14.00;;;;;27.19;47.23;101362.00;5061313;28;45366;-73
2022/07/14 08:38:48;;;;;;;;;16.67;14.67;;;;;27.25;46.88;101357.38;5042389;28;47449;-73
2022/07/14 08:41:14;;;;;;;;;13.00;13.00;;;;;27.26;47.00;101356.28;5060913;28;45364;-73
2022/07/14 08:43:40;;;;;;;;;17.33;15.33;;;;;27.38;46.61;101361.47;5060938;28;45295;-73
2022/07/14 08:46:05;;;;;;;;;11.00;11.00;;;;;27.39;46.86;101360.38;5042594;28;46585;-73
2022/07/14 08:48:31;;;;;;;;;15.00;15.00;;;;;27.46;46.36;101363.63;5039108;28;47225;-73
2022/07/14 08:50:58;;;;;;;;;11.00;11.00;;;;;27.47;45.57;101357.06;5038734;28;45463;-73
2022/07/14 08:53:28;;;;;;;;;13.00;12.00;;;;;27.56;45.98;101381.94;5060853;28;45351;-72
2022/07/14 08:55:54;;;;;;;;;10.00;10.00;;;;;27.57;45.49;101367.97;5060574;28;45311;-73
2022/07/14 08:58:19;;;;;;;;;15.67;13.33;;;;;27.63;45.08;101368.00;5060695;28;46303;-73
2022/07/14 09:00:45;;;;;;;;;12.33;10.67;;;;;27.67;44.62;101375.38;5060549;28;45415;-73
2022/07/14 09:03:10;;;;;;;;;9.67;9.67;;;;;27.69;44.93;101367.75;5057384;28;46367;-72
2022/07/14 09:05:41;;;;;;;;;11.33;11.33;;;;;27.68;44.59;101368.81;5042639;28;46135;-71
2022/07/14 09:08:06;;;;;;;;;9.00;9.00;;;;;27.67;44.83;101367.19;5060355;28;45494;-71
2022/07/14 09:10:32;;;;;;;;;10.67;10.00;;;;;27.69;44.30;101361.47;5060555;28;45468;-72
2022/07/14 09:13:18;;;;;;;;;11.67;11.33;;;;;27.77;43.99;101362.81;5060696;28;45726;-73
2022/07/14 09:15:44;;;;;;;;;11.33;11.33;;;;;27.86;43.94;101363.88;5043196;28;47721;-73
2022/07/14 09:18:17;;;;;;;;;9.00;9.00;;;;;27.94;44.10;101367.94;5064390;28;46086;-73
2022/07/14 09:20:43;;;;;;;;;11.00;11.00;;;;;27.98;42.67;101366.28;5060496;28;45514;-73
2022/07/14 09:23:08;;;;;;;;;9.00;9.00;;;;;28.03;42.15;101370.91;5053719;28;45343;-72
2022/07/14 09:25:34;;;;;;;;;13.00;12.67;;;;;27.93;41.82;101363.59;5060602;28;45412;-73
2022/07/14 09:28:00;;;;;;;;;10.00;10.00;;;;;28.02;42.04;101370.13;5060198;28;45370;-73
2022/07/14 09:30:26;;;;;;;;;31.00;27.33;;;;;28.02;40.94;101367.38;5058812;28;45280;-72
2022/07/14 09:32:56;;;;;;;;;12.00;12.00;;;;;28.00;41.37;101366.84;5060215;28;45509;-72
2022/07/14 09:35:41;;;;;;;;;14.67;12.67;;;;;28.02;41.68;101353.72;5059896;28;45486;-72
2022/07/14 09:38:19;;;;;;;;;12.00;12.00;;;;;28.09;42.01;101367.91;5041868;28;47462;-72
2022/07/14 09:40:46;;;;;;;;;12.00;12.00;;;;;28.16;41.66;101362.13;5040418;28;45482;-72
2022/07/14 09:43:15;;;;;;;;;14.00;13.67;;;;;28.23;42.20;101353.66;5046838;28;45428;-73
2022/07/14 09:45:46;;;;;;;;;12.33;12.33;;;;;28.31;42.34;101355.81;5041572;28;46200;-72
2022/07/14 09:48:13;;;;;;;;;12.67;12.67;;;;;28.39;42.23;101350.84;5045430;28;47090;-73
2022/07/14 09:50:57;;;;;;;;;14.00;14.00;;;;;28.52;42.08;101352.97;5041780;28;45210;-73
2022/07/14 09:53:24;;;;;;;;;12.67;12.67;;;;;28.65;41.70;101361.66;5026272;28;45333;-73
2022/07/14 09:55:53;;;;;;;;;13.00;13.00;;;;;28.74;41.87;101368.97;5041759;28;46260;-72
2022/07/14 09:58:20;;;;;;;;;14.00;13.33;;;;;28.81;40.64;101359.63;5039654;28;45317;-71
2022/07/14 10:00:57;;;;;;;;;11.33;11.33;;;;;28.88;40.51;101353.88;5052163;28;45378;-72
2022/07/14 10:03:24;;;;;;;;;13.33;13.00;;;;;28.99;40.93;101349.97;5059929;28;45468;-71
2022/07/14 10:05:53;;;;;;;;;12.33;12.00;;;;;29.10;40.37;101348.81;5050767;28;47447;-72
2022/07/14 10:08:22;;;;;;;;;11.33;11.00;;;;;29.20;39.50;101347.06;5059284;28;45260;-72
2022/07/14 10:10:48;;;;;;;;;11.67;11.67;;;;;29.30;39.83;101351.66;5059614;28;45221;-71
2022/07/14 10:13:15;;;;;;;;;12.67;12.67;;;;;29.41;38.28;101353.19;5059473;28;45326;-71
2022/07/14 10:15:41;;;;;;;;;13.67;13.67;;;;;29.46;38.84;101347.66;5060308;28;45170;-71
2022/07/14 10:18:07;;;;;;;;;12.00;11.33;;;;;29.61;38.65;101352.22;5063911;28;45365;-71
2022/07/14 10:20:34;;;;;;;;;12.00;12.00;;;;;29.70;38.54;101348.81;5059563;28;45422;-72
2022/07/14 10:23:00;;;;;;;;;11.67;11.67;;;;;29.82;37.82;101362.94;5059455;28;45447;-71
2022/07/14 10:25:26;;;;;;;;;10.67;10.67;;;;;29.85;38.00;101350.56;5059141;28;45303;-72
2022/07/14 10:27:52;;;;;;;;;10.67;9.33;;;;;29.90;35.98;101344.22;5049568;28;47193;-71
2022/07/14 10:30:18;;;;;;;;;7.33;7.33;;;;;30.02;36.38;101347.38;5059075;28;45356;-71
2022/07/14 10:33:28;;;;;;;;;9.00;8.67;;;;;30.14;34.69;101368.88;5059700;28;45292;-71
2022/07/14 10:36:23;;;;;;;;;8.00;8.00;;;;;30.26;34.71;101357.53;5038038;28;47659;-72
2022/07/14 10:39:12;;;;;;;;;8.67;8.67;;;;;30.33;33.87;101351.66;5040478;28;47287;-72
2022/07/14 10:42:14;;;;;;;;;8.33;8.33;;;;;30.51;34.22;101355.53;5059202;28;45509;-72
2022/07/14 10:44:45;;;;;;;;;11.33;11.33;;;;;30.69;35.12;101359.41;5037702;28;45521;-73
2022/07/14 10:47:11;;;;;;;;;8.00;7.67;;;;;30.88;33.57;101358.56;5051848;28;45441;-72
2022/07/14 10:50:04;;;;;;;;;7.33;7.33;;;;;31.02;31.78;101357.81;5058770;28;45457;-72
2022/07/14 10:52:32;;;;;;;;;9.00;9.00;;;;;31.15;33.65;101345.28;5058837;28;45308;-72
2022/07/14 10:55:17;;;;;;;;;14.33;12.00;;;;;31.31;32.94;101362.28;5059211;28;45443;-72
2022/07/14 10:58:05;;;;;;;;;7.67;7.67;;;;;31.50;32.99;101354.00;5058743;28;45400;-73
2022/07/14 11:00:55;;;;;;;;;8.00;7.67;;;;;31.68;32.87;101366.03;5047596;28;45435;-72
2022/07/14 11:03:22;;;;;;;;;10.33;8.67;;;;;31.82;33.08;101360.56;5050828;28;45525;-72
2022/07/14 11:06:00;;;;;;;;;8.67;8.67;;;;;31.94;32.09;101360.09;5049220;28;45375;-74
2022/07/14 11:08:25;;;;;;;;;8.67;8.67;;;;;31.95;32.42;101350.72;5031478;28;46221;-72
2022/07/14 11:10:55;;;;;;;;;9.00;8.67;;;;;32.10;32.57;101352.31;5033817;28;51360;-73
2022/07/14 11:13:21;;;;;;;;;10.00;10.00;;;;;32.19;32.21;101343.34;5050344;28;46094;-72
2022/07/14 11:15:57;;;;;;;;;7.00;7.00;;;;;32.33;32.53;101338.66;5044979;28;45459;-72
2022/07/14 11:18:26;;;;;;;;;8.00;8.00;;;;;32.55;31.59;101347.25;5051820;28;45483;-73
2022/07/14 11:21:00;;;;;;;;;8.33;8.33;;;;;32.74;32.39;101344.34;5045338;28;45379;-72
2022/07/14 11:23:26;;;;;;;;;8.00;8.00;;;;;32.91;31.85;101342.84;5039848;28;45301;-72
2022/07/14 11:25:53;;;;;;;;;11.67;11.33;;;;;33.01;31.59;101339.84;5046877;28;45585;-72